Terminal Aerodrome Forecast
Issued by NWS Omaha/Valley, NE

Home | Current Version | Previous Version | Graphics & Text | Print | Product List | Glossary On
Versions: 1 2 3 4 5 6 7 8 9 10 11 12 13 14 15 16 17 18 19 20 21 22 23 24 25 26 27 28 29 30 31 32 33 34 35 36 37 38 39 40 41 42 43
000
FTUS43 KOAX 251120
TAFOFK
TAF
KOFK 251120Z 2512/2612 24006KT P6SM SCT050
     FM251600 21009KT P6SM SCT250
     FM252000 19011KT P6SM BKN150
     FM260000 19010KT P6SM BKN025 OVC050 PROB30 2600/2604 4SM -RASN
     FM260400 28013KT P6SM OVC025
      TEMPO 2604/2608 3SM -SN OVC015
     FM260900 30018G26KT P6SM BKN020=

USA.gov is the U.S. government's official web portal to all federal, state and local government web resources and services.